sensor_id;sensor_type;location;lat;lon;timestamp;P1;durP1;ratioP1;P2;durP2;ratioP2
34541;SDS011;20784;51.332;12.410;2023-05-10T00:02:05;8.38;;;4.38;;
34541;SDS011;20784;51.332;12.410;2023-05-10T00:04:35;7.60;;;4.00;;
34541;SDS011;20784;51.332;12.410;2023-05-10T00:07:01;9.13;;;4.68;;
34541;SDS011;20784;51.332;12.410;2023-05-10T00:09:31;8.75;;;4.57;;
34541;SDS011;20784;51.332;12.410;2023-05-10T00:11:57;6.63;;;4.13;;
34541;SDS011;20784;51.332;12.410;2023-05-10T00:14:23;6.40;;;3.63;;
34541;SDS011;20784;51.332;12.410;2023-05-10T00:16:55;5.28;;;4.03;;
34541;SDS011;20784;51.332;12.410;2023-05-10T00:19:43;6.65;;;4.57;;
34541;SDS011;20784;51.332;12.410;2023-05-10T00:22:14;9.05;;;4.60;;
34541;SDS011;20784;51.332;12.410;2023-05-10T00:24:42;9.10;;;4.30;;
34541;SDS011;20784;51.332;12.410;2023-05-10T00:27:11;9.23;;;4.00;;
34541;SDS011;20784;51.332;12.410;2023-05-10T00:29:37;7.13;;;4.45;;
34541;SDS011;20784;51.332;12.410;2023-05-10T00:32:06;8.75;;;4.70;;
34541;SDS011;20784;51.332;12.410;2023-05-10T00:34:32;7.00;;;4.32;;
34541;SDS011;20784;51.332;12.410;2023-05-10T00:37:03;8.20;;;4.35;;
34541;SDS011;20784;51.332;12.410;2023-05-10T00:39:31;5.95;;;4.20;;
34541;SDS011;20784;51.332;12.410;2023-05-10T00:42:02;7.13;;;4.78;;
34541;SDS011;20784;51.332;12.410;2023-05-10T00:44:29;8.70;;;4.93;;
34541;SDS011;20784;51.332;12.410;2023-05-10T00:47:02;7.03;;;4.57;;
34541;SDS011;20784;51.332;12.410;2023-05-10T00:49:28;8.07;;;4.63;;
34541;SDS011;20784;51.332;12.410;2023-05-10T00:51:54;7.00;;;4.53;;
34541;SDS011;20784;51.332;12.410;2023-05-10T00:54:20;6.57;;;4.25;;
34541;SDS011;20784;51.332;12.410;2023-05-10T00:56:54;7.13;;;4.53;;
34541;SDS011;20784;51.332;12.410;2023-05-10T00:59:21;7.25;;;4.63;;
34541;SDS011;20784;51.332;12.410;2023-05-10T01:01:47;10.38;;;4.68;;
34541;SDS011;20784;51.332;12.410;2023-05-10T01:04:13;6.93;;;4.05;;
34541;SDS011;20784;51.332;12.410;2023-05-10T01:06:50;6.78;;;4.28;;
34541;SDS011;20784;51.332;12.410;2023-05-10T01:09:16;7.03;;;4.18;;
34541;SDS011;20784;51.332;12.410;2023-05-10T01:11:43;5.82;;;4.63;;
34541;SDS011;20784;51.332;12.410;2023-05-10T01:17:30;7.30;;;4.22;;
34541;SDS011;20784;51.332;12.410;2023-05-10T01:19:59;7.00;;;4.20;;
34541;SDS011;20784;51.332;12.410;2023-05-10T01:22:34;6.35;;;4.43;;
34541;SDS011;20784;51.332;12.410;2023-05-10T01:25:19;6.57;;;4.30;;
34541;SDS011;20784;51.332;12.410;2023-05-10T01:34:12;5.75;;;3.88;;
34541;SDS011;20784;51.332;12.410;2023-05-10T01:36:54;9.25;;;4.10;;
34541;SDS011;20784;51.332;12.410;2023-05-10T01:39:42;7.93;;;3.97;;
34541;SDS011;20784;51.332;12.410;2023-05-10T01:42:20;7.35;;;4.60;;
34541;SDS011;20784;51.332;12.410;2023-05-10T01:50:01;9.18;;;4.13;;
34541;SDS011;20784;51.332;12.410;2023-05-10T01:52:33;5.63;;;3.88;;
34541;SDS011;20784;51.332;12.410;2023-05-10T01:55:06;4.68;;;4.10;;
34541;SDS011;20784;51.332;12.410;2023-05-10T01:57:36;8.63;;;4.03;;
34541;SDS011;20784;51.332;12.410;2023-05-10T02:00:05;6.70;;;4.28;;
34541;SDS011;20784;51.332;12.410;2023-05-10T02:02:40;7.55;;;4.03;;
34541;SDS011;20784;51.332;12.410;2023-05-10T02:05:09;8.13;;;4.30;;
34541;SDS011;20784;51.332;12.410;2023-05-10T02:07:38;6.15;;;4.20;;
34541;SDS011;20784;51.332;12.410;2023-05-10T02:10:05;6.18;;;3.95;;
34541;SDS011;20784;51.332;12.410;2023-05-10T02:12:35;10.05;;;4.38;;
34541;SDS011;20784;51.332;12.410;2023-05-10T02:15:12;9.13;;;4.10;;
34541;SDS011;20784;51.332;12.410;2023-05-10T02:17:43;4.57;;;3.60;;
34541;SDS011;20784;51.332;12.410;2023-05-10T02:20:11;6.38;;;4.00;;
34541;SDS011;20784;51.332;12.410;2023-05-10T02:22:41;6.03;;;3.80;;
34541;SDS011;20784;51.332;12.410;2023-05-10T02:25:12;7.55;;;4.25;;
34541;SDS011;20784;51.332;12.410;2023-05-10T02:27:41;9.43;;;4.82;;
34541;SDS011;20784;51.332;12.410;2023-05-10T02:30:12;6.80;;;4.00;;
34541;SDS011;20784;51.332;12.410;2023-05-10T02:32:40;8.27;;;4.60;;
34541;SDS011;20784;51.332;12.410;2023-05-10T02:35:10;5.40;;;3.97;;
34541;SDS011;20784;51.332;12.410;2023-05-10T02:37:37;10.32;;;4.07;;
34541;SDS011;20784;51.332;12.410;2023-05-10T02:40:04;7.03;;;4.15;;
34541;SDS011;20784;51.332;12.410;2023-05-10T02:42:35;6.10;;;3.95;;
34541;SDS011;20784;51.332;12.410;2023-05-10T02:45:07;7.68;;;4.07;;
34541;SDS011;20784;51.332;12.410;2023-05-10T02:47:41;10.50;;;4.32;;
34541;SDS011;20784;51.332;12.410;2023-05-10T02:50:07;6.68;;;3.83;;
34541;SDS011;20784;51.332;12.410;2023-05-10T02:52:40;6.60;;;3.88;;
34541;SDS011;20784;51.332;12.410;2023-05-10T02:55:19;6.63;;;4.18;;
34541;SDS011;20784;51.332;12.410;2023-05-10T02:57:56;7.63;;;3.95;;
34541;SDS011;20784;51.332;12.410;2023-05-10T03:00:25;7.72;;;4.20;;
34541;SDS011;20784;51.332;12.410;2023-05-10T03:02:54;12.75;;;4.20;;
34541;SDS011;20784;51.332;12.410;2023-05-10T03:05:20;5.80;;;4.13;;
34541;SDS011;20784;51.332;12.410;2023-05-10T03:07:46;6.93;;;4.20;;
34541;SDS011;20784;51.332;12.410;2023-05-10T03:10:12;7.28;;;4.15;;
34541;SDS011;20784;51.332;12.410;2023-05-10T03:21:18;7.53;;;4.50;;
34541;SDS011;20784;51.332;12.410;2023-05-10T03:23:52;8.07;;;4.05;;
34541;SDS011;20784;51.332;12.410;2023-05-10T03:26:33;6.70;;;3.90;;
34541;SDS011;20784;51.332;12.410;2023-05-10T03:29:00;8.50;;;4.13;;
34541;SDS011;20784;51.332;12.410;2023-05-10T03:31:29;5.10;;;3.67;;
34541;SDS011;20784;51.332;12.410;2023-05-10T03:33:55;8.52;;;3.90;;
34541;SDS011;20784;51.332;12.410;2023-05-10T03:36:20;8.95;;;4.28;;
34541;SDS011;20784;51.332;12.410;2023-05-10T03:38:46;6.47;;;4.10;;
34541;SDS011;20784;51.332;12.410;2023-05-10T03:41:12;5.43;;;3.92;;
34541;SDS011;20784;51.332;12.410;2023-05-10T03:43:40;5.63;;;4.28;;
34541;SDS011;20784;51.332;12.410;2023-05-10T03:46:08;6.03;;;3.70;;
34541;SDS011;20784;51.332;12.410;2023-05-10T03:48:34;8.00;;;4.03;;
34541;SDS011;20784;51.332;12.410;2023-05-10T03:51:10;6.30;;;4.13;;
34541;SDS011;20784;51.332;12.410;2023-05-10T03:53:36;10.65;;;4.20;;
34541;SDS011;20784;51.332;12.410;2023-05-10T03:56:04;7.72;;;4.18;;
34541;SDS011;20784;51.332;12.410;2023-05-10T03:58:30;7.88;;;4.10;;
34541;SDS011;20784;51.332;12.410;2023-05-10T04:01:03;7.60;;;4.38;;
34541;SDS011;20784;51.332;12.410;2023-05-10T04:03:29;7.75;;;4.70;;
34541;SDS011;20784;51.332;12.410;2023-05-10T04:05:58;6.30;;;4.55;;
34541;SDS011;20784;51.332;12.410;2023-05-10T04:08:27;5.82;;;4.35;;
34541;SDS011;20784;51.332;12.410;2023-05-10T04:10:53;6.40;;;4.00;;
34541;SDS011;20784;51.332;12.410;2023-05-10T04:13:19;11.68;;;4.18;;
34541;SDS011;20784;51.332;12.410;2023-05-10T04:15:47;7.50;;;3.80;;
34541;SDS011;20784;51.332;12.410;2023-05-10T04:18:13;6.00;;;3.70;;
34541;SDS011;20784;51.332;12.410;2023-05-10T04:20:38;6.75;;;3.75;;
34541;SDS011;20784;51.332;12.410;2023-05-10T04:23:04;5.90;;;3.70;;
34541;SDS011;20784;51.332;12.410;2023-05-10T04:25:33;4.93;;;4.15;;
34541;SDS011;20784;51.332;12.410;2023-05-10T04:28:00;9.88;;;4.65;;
34541;SDS011;20784;51.332;12.410;2023-05-10T04:30:25;5.93;;;4.03;;
34541;SDS011;20784;51.332;12.410;2023-05-10T04:32:53;10.30;;;5.30;;
34541;SDS011;20784;51.332;12.410;2023-05-10T04:35:19;8.65;;;4.63;;
34541;SDS011;20784;51.332;12.410;2023-05-10T04:37:44;11.32;;;4.03;;
34541;SDS011;20784;51.332;12.410;2023-05-10T04:43:22;6.05;;;4.50;;
34541;SDS011;20784;51.332;12.410;2023-05-10T04:45:48;5.05;;;4.13;;
34541;SDS011;20784;51.332;12.410;2023-05-10T04:48:15;8.25;;;3.88;;
34541;SDS011;20784;51.332;12.410;2023-05-10T04:50:40;5.38;;;3.92;;
34541;SDS011;20784;51.332;12.410;2023-05-10T04:53:08;6.78;;;3.58;;
34541;SDS011;20784;51.332;12.410;2023-05-10T04:55:36;6.90;;;3.65;;
34541;SDS011;20784;51.332;12.410;2023-05-10T04:58:02;6.55;;;4.20;;
34541;SDS011;20784;51.332;12.410;2023-05-10T05:00:27;6.38;;;3.78;;
34541;SDS011;20784;51.332;12.410;2023-05-10T05:02:53;12.18;;;4.47;;
34541;SDS011;20784;51.332;12.410;2023-05-10T05:05:19;8.32;;;3.90;;
34541;SDS011;20784;51.332;12.410;2023-05-10T05:07:44;7.18;;;4.22;;
34541;SDS011;20784;51.332;12.410;2023-05-10T05:10:10;8.52;;;3.78;;
34541;SDS011;20784;51.332;12.410;2023-05-10T05:12:36;7.65;;;4.32;;
34541;SDS011;20784;51.332;12.410;2023-05-10T05:15:01;14.85;;;3.90;;
34541;SDS011;20784;51.332;12.410;2023-05-10T05:17:29;7.20;;;3.78;;
34541;SDS011;20784;51.332;12.410;2023-05-10T05:19:55;6.03;;;4.03;;
34541;SDS011;20784;51.332;12.410;2023-05-10T05:22:23;6.68;;;4.03;;
34541;SDS011;20784;51.332;12.410;2023-05-10T05:24:56;5.85;;;4.25;;
34541;SDS011;20784;51.332;12.410;2023-05-10T05:27:23;7.20;;;4.13;;
34541;SDS011;20784;51.332;12.410;2023-05-10T05:29:52;6.35;;;3.90;;
34541;SDS011;20784;51.332;12.410;2023-05-10T05:32:18;11.75;;;4.40;;
34541;SDS011;20784;51.332;12.410;2023-05-10T05:34:46;4.72;;;3.53;;
34541;SDS011;20784;51.332;12.410;2023-05-10T05:37:19;8.65;;;4.05;;
34541;SDS011;20784;51.332;12.410;2023-05-10T05:39:56;5.55;;;3.90;;
34541;SDS011;20784;51.332;12.410;2023-05-10T05:42:22;7.82;;;3.70;;
34541;SDS011;20784;51.332;12.410;2023-05-10T05:44:47;9.35;;;4.13;;
34541;SDS011;20784;51.332;12.410;2023-05-10T05:47:13;7.95;;;4.05;;
34541;SDS011;20784;51.332;12.410;2023-05-10T05:49:39;6.68;;;3.80;;
34541;SDS011;20784;51.332;12.410;2023-05-10T05:52:04;8.85;;;3.65;;
34541;SDS011;20784;51.332;12.410;2023-05-10T05:54:30;20.35;;;3.67;;
34541;SDS011;20784;51.332;12.410;2023-05-10T05:56:56;13.45;;;3.92;;
34541;SDS011;20784;51.332;12.410;2023-05-10T05:59:22;6.75;;;3.90;;
34541;SDS011;20784;51.332;12.410;2023-05-10T06:01:48;4.18;;;3.38;;
34541;SDS011;20784;51.332;12.410;2023-05-10T06:04:14;6.60;;;3.70;;
34541;SDS011;20784;51.332;12.410;2023-05-10T06:06:41;5.35;;;3.53;;
34541;SDS011;20784;51.332;12.410;2023-05-10T06:09:07;6.28;;;4.63;;
34541;SDS011;20784;51.332;12.410;2023-05-10T06:11:33;6.60;;;4.72;;
34541;SDS011;20784;51.332;12.410;2023-05-10T06:14:02;6.35;;;4.60;;
34541;SDS011;20784;51.332;12.410;2023-05-10T06:16:32;7.20;;;3.75;;
34541;SDS011;20784;51.332;12.410;2023-05-10T06:18:58;10.65;;;3.72;;
34541;SDS011;20784;51.332;12.410;2023-05-10T06:21:24;7.32;;;4.20;;
34541;SDS011;20784;51.332;12.410;2023-05-10T06:23:53;5.28;;;4.20;;
34541;SDS011;20784;51.332;12.410;2023-05-10T06:26:23;7.70;;;3.28;;
34541;SDS011;20784;51.332;12.410;2023-05-10T06:29:09;7.93;;;4.13;;
34541;SDS011;20784;51.332;12.410;2023-05-10T06:31:40;9.00;;;4.03;;
34541;SDS011;20784;51.332;12.410;2023-05-10T06:34:14;5.22;;;3.50;;
34541;SDS011;20784;51.332;12.410;2023-05-10T06:36:43;6.22;;;3.70;;
34541;SDS011;20784;51.332;12.410;2023-05-10T06:39:08;9.13;;;3.80;;
34541;SDS011;20784;51.332;12.410;2023-05-10T06:41:36;11.27;;;4.00;;
34541;SDS011;20784;51.332;12.410;2023-05-10T06:44:02;10.70;;;3.97;;
34541;SDS011;20784;51.332;12.410;2023-05-10T06:46:37;9.50;;;4.00;;
34541;SDS011;20784;51.332;12.410;2023-05-10T06:49:17;5.47;;;3.55;;
34541;SDS011;20784;51.332;12.410;2023-05-10T06:51:50;7.13;;;4.45;;
34541;SDS011;20784;51.332;12.410;2023-05-10T06:54:24;7.22;;;3.67;;
34541;SDS011;20784;51.332;12.410;2023-05-10T06:56:55;5.40;;;3.83;;
34541;SDS011;20784;51.332;12.410;2023-05-10T06:59:21;9.55;;;3.88;;
34541;SDS011;20784;51.332;12.410;2023-05-10T07:01:47;7.88;;;3.85;;
34541;SDS011;20784;51.332;12.410;2023-05-10T07:04:12;6.43;;;3.80;;
34541;SDS011;20784;51.332;12.410;2023-05-10T07:06:38;11.18;;;3.70;;
34541;SDS011;20784;51.332;12.410;2023-05-10T07:09:04;7.47;;;4.00;;
34541;SDS011;20784;51.332;12.410;2023-05-10T07:11:29;7.95;;;3.63;;
34541;SDS011;20784;51.332;12.410;2023-05-10T07:13:55;6.32;;;3.55;;
34541;SDS011;20784;51.332;12.410;2023-05-10T07:16:21;7.72;;;3.60;;
34541;SDS011;20784;51.332;12.410;2023-05-10T07:18:47;7.40;;;3.45;;
34541;SDS011;20784;51.332;12.410;2023-05-10T07:21:15;6.20;;;3.90;;
34541;SDS011;20784;51.332;12.410;2023-05-10T07:23:44;8.30;;;3.60;;
34541;SDS011;20784;51.332;12.410;2023-05-10T07:26:10;7.90;;;3.35;;
34541;SDS011;20784;51.332;12.410;2023-05-10T07:28:39;11.50;;;3.72;;
34541;SDS011;20784;51.332;12.410;2023-05-10T07:31:05;8.43;;;4.03;;
34541;SDS011;20784;51.332;12.410;2023-05-10T07:33:33;7.60;;;4.03;;
34541;SDS011;20784;51.332;12.410;2023-05-10T07:36:01;5.90;;;3.63;;
34541;SDS011;20784;51.332;12.410;2023-05-10T07:38:27;11.00;;;3.40;;
34541;SDS011;20784;51.332;12.410;2023-05-10T07:40:53;8.68;;;3.85;;
34541;SDS011;20784;51.332;12.410;2023-05-10T07:43:20;7.93;;;3.78;;
34541;SDS011;20784;51.332;12.410;2023-05-10T07:45:46;6.38;;;3.42;;
34541;SDS011;20784;51.332;12.410;2023-05-10T07:48:14;14.13;;;3.42;;
34541;SDS011;20784;51.332;12.410;2023-05-10T07:50:40;12.60;;;3.80;;
34541;SDS011;20784;51.332;12.410;2023-05-10T07:53:11;7.25;;;3.67;;
34541;SDS011;20784;51.332;12.410;2023-05-10T07:55:37;6.70;;;3.13;;
34541;SDS011;20784;51.332;12.410;2023-05-10T07:58:03;8.13;;;3.90;;
34541;SDS011;20784;51.332;12.410;2023-05-10T08:00:31;8.77;;;3.63;;
34541;SDS011;20784;51.332;12.410;2023-05-10T08:02:59;7.93;;;3.63;;
34541;SDS011;20784;51.332;12.410;2023-05-10T08:05:32;11.45;;;3.90;;
34541;SDS011;20784;51.332;12.410;2023-05-10T08:07:58;5.90;;;3.60;;
34541;SDS011;20784;51.332;12.410;2023-05-10T08:10:24;7.40;;;3.40;;
34541;SDS011;20784;51.332;12.410;2023-05-10T08:12:53;8.63;;;3.22;;
34541;SDS011;20784;51.332;12.410;2023-05-10T08:15:18;7.72;;;3.38;;
34541;SDS011;20784;51.332;12.410;2023-05-10T08:17:44;9.88;;;3.80;;
34541;SDS011;20784;51.332;12.410;2023-05-10T08:20:10;7.03;;;3.90;;
34541;SDS011;20784;51.332;12.410;2023-05-10T08:22:37;8.18;;;3.45;;
34541;SDS011;20784;51.332;12.410;2023-05-10T08:25:03;9.73;;;4.05;;
34541;SDS011;20784;51.332;12.410;2023-05-10T08:27:30;8.82;;;3.80;;
34541;SDS011;20784;51.332;12.410;2023-05-10T08:29:55;9.68;;;4.07;;
34541;SDS011;20784;51.332;12.410;2023-05-10T08:32:23;4.95;;;3.53;;
34541;SDS011;20784;51.332;12.410;2023-05-10T08:34:49;5.53;;;3.95;;
34541;SDS011;20784;51.332;12.410;2023-05-10T08:37:15;10.45;;;3.70;;
34541;SDS011;20784;51.332;12.410;2023-05-10T08:39:41;4.65;;;3.70;;
34541;SDS011;20784;51.332;12.410;2023-05-10T08:42:07;6.72;;;3.80;;
34541;SDS011;20784;51.332;12.410;2023-05-10T08:44:34;7.35;;;4.10;;
34541;SDS011;20784;51.332;12.410;2023-05-10T08:47:04;6.90;;;3.97;;
34541;SDS011;20784;51.332;12.410;2023-05-10T08:49:38;5.35;;;3.92;;
34541;SDS011;20784;51.332;12.410;2023-05-10T08:52:08;7.75;;;3.75;;
34541;SDS011;20784;51.332;12.410;2023-05-10T08:54:38;7.10;;;4.00;;
34541;SDS011;20784;51.332;12.410;2023-05-10T08:57:04;6.47;;;4.05;;
34541;SDS011;20784;51.332;12.410;2023-05-10T08:59:32;5.60;;;4.40;;
34541;SDS011;20784;51.332;12.410;2023-05-10T09:01:58;6.40;;;4.10;;
34541;SDS011;20784;51.332;12.410;2023-05-10T09:04:25;11.15;;;4.47;;
34541;SDS011;20784;51.332;12.410;2023-05-10T09:06:51;9.02;;;4.47;;
34541;SDS011;20784;51.332;12.410;2023-05-10T09:09:17;11.45;;;4.43;;
34541;SDS011;20784;51.332;12.410;2023-05-10T09:11:43;8.55;;;4.55;;
34541;SDS011;20784;51.332;12.410;2023-05-10T09:14:12;8.25;;;4.40;;
34541;SDS011;20784;51.332;12.410;2023-05-10T09:16:39;6.55;;;4.75;;
34541;SDS011;20784;51.332;12.410;2023-05-10T09:19:06;10.75;;;4.55;;
34541;SDS011;20784;51.332;12.410;2023-05-10T09:24:06;6.82;;;4.72;;
34541;SDS011;20784;51.332;12.410;2023-05-10T09:26:32;8.00;;;5.10;;
34541;SDS011;20784;51.332;12.410;2023-05-10T09:29:00;9.05;;;5.20;;
34541;SDS011;20784;51.332;12.410;2023-05-10T09:31:50;8.45;;;5.47;;
34541;SDS011;20784;51.332;12.410;2023-05-10T09:34:17;8.45;;;5.50;;
34541;SDS011;20784;51.332;12.410;2023-05-10T09:36:53;8.15;;;5.80;;
34541;SDS011;20784;51.332;12.410;2023-05-10T09:39:21;8.30;;;5.88;;
34541;SDS011;20784;51.332;12.410;2023-05-10T09:41:59;10.02;;;6.07;;
34541;SDS011;20784;51.332;12.410;2023-05-10T09:44:32;9.75;;;5.75;;
34541;SDS011;20784;51.332;12.410;2023-05-10T09:46:58;11.77;;;6.07;;
34541;SDS011;20784;51.332;12.410;2023-05-10T09:49:25;10.75;;;6.40;;
34541;SDS011;20784;51.332;12.410;2023-05-10T09:52:03;11.50;;;6.63;;
34541;SDS011;20784;51.332;12.410;2023-05-10T09:54:31;9.88;;;6.25;;
34541;SDS011;20784;51.332;12.410;2023-05-10T09:56:57;10.63;;;7.00;;
34541;SDS011;20784;51.332;12.410;2023-05-10T09:59:24;8.38;;;6.57;;
34541;SDS011;20784;51.332;12.410;2023-05-10T10:01:52;10.30;;;7.13;;
34541;SDS011;20784;51.332;12.410;2023-05-10T10:04:21;10.55;;;7.28;;
34541;SDS011;20784;51.332;12.410;2023-05-10T10:06:47;11.00;;;6.88;;
34541;SDS011;20784;51.332;12.410;2023-05-10T10:09:25;7.82;;;6.32;;
34541;SDS011;20784;51.332;12.410;2023-05-10T10:11:50;10.30;;;6.53;;
34541;SDS011;20784;51.332;12.410;2023-05-10T10:14:18;13.55;;;7.45;;
34541;SDS011;20784;51.332;12.410;2023-05-10T10:16:47;9.82;;;7.28;;
34541;SDS011;20784;51.332;12.410;2023-05-10T10:19:14;16.25;;;8.93;;
34541;SDS011;20784;51.332;12.410;2023-05-10T10:21:40;11.27;;;7.47;;
34541;SDS011;20784;51.332;12.410;2023-05-10T10:24:06;13.88;;;7.72;;
34541;SDS011;20784;51.332;12.410;2023-05-10T10:26:34;8.80;;;6.47;;
34541;SDS011;20784;51.332;12.410;2023-05-10T10:29:21;11.10;;;6.82;;
34541;SDS011;20784;51.332;12.410;2023-05-10T10:31:57;8.77;;;6.72;;
34541;SDS011;20784;51.332;12.410;2023-05-10T10:34:31;12.07;;;7.13;;
34541;SDS011;20784;51.332;12.410;2023-05-10T10:37:04;7.95;;;6.57;;
34541;SDS011;20784;51.332;12.410;2023-05-10T10:39:33;8.80;;;7.00;;
34541;SDS011;20784;51.332;12.410;2023-05-10T10:42:03;8.13;;;7.00;;
34541;SDS011;20784;51.332;12.410;2023-05-10T10:49:48;11.18;;;6.88;;
34541;SDS011;20784;51.332;12.410;2023-05-10T10:52:23;10.38;;;7.70;;
34541;SDS011;20784;51.332;12.410;2023-05-10T10:55:06;9.95;;;7.30;;
34541;SDS011;20784;51.332;12.410;2023-05-10T11:00:22;12.88;;;7.65;;
34541;SDS011;20784;51.332;12.410;2023-05-10T11:02:58;12.02;;;7.05;;
34541;SDS011;20784;51.332;12.410;2023-05-10T11:08:00;10.20;;;7.40;;
34541;SDS011;20784;51.332;12.410;2023-05-10T11:13:37;10.35;;;7.82;;
34541;SDS011;20784;51.332;12.410;2023-05-10T11:19:04;9.55;;;7.63;;
34541;SDS011;20784;51.332;12.410;2023-05-10T11:21:47;9.57;;;6.95;;
34541;SDS011;20784;51.332;12.410;2023-05-10T11:24:20;10.63;;;7.80;;
34541;SDS011;20784;51.332;12.410;2023-05-10T11:26:49;9.32;;;7.50;;
34541;SDS011;20784;51.332;12.410;2023-05-10T11:29:18;11.27;;;8.50;;
34541;SDS011;20784;51.332;12.410;2023-05-10T11:31:46;9.77;;;8.02;;
34541;SDS011;20784;51.332;12.410;2023-05-10T11:34:28;9.68;;;7.80;;
34541;SDS011;20784;51.332;12.410;2023-05-10T11:36:55;10.85;;;8.45;;
34541;SDS011;20784;51.332;12.410;2023-05-10T11:39:25;11.60;;;8.13;;
34541;SDS011;20784;51.332;12.410;2023-05-10T11:42:00;13.75;;;8.32;;
34541;SDS011;20784;51.332;12.410;2023-05-10T11:44:29;12.50;;;8.45;;
34541;SDS011;20784;51.332;12.410;2023-05-10T11:46:58;10.30;;;7.78;;
34541;SDS011;20784;51.332;12.410;2023-05-10T11:49:26;11.57;;;8.63;;
34541;SDS011;20784;51.332;12.410;2023-05-10T11:51:52;9.70;;;8.43;;
34541;SDS011;20784;51.332;12.410;2023-05-10T11:54:18;12.52;;;8.30;;
34541;SDS011;20784;51.332;12.410;2023-05-10T11:56:46;12.25;;;8.02;;
34541;SDS011;20784;51.332;12.410;2023-05-10T11:59:13;9.80;;;7.80;;
34541;SDS011;20784;51.332;12.410;2023-05-10T12:01:40;10.50;;;8.32;;
34541;SDS011;20784;51.332;12.410;2023-05-10T12:04:06;10.73;;;8.38;;
34541;SDS011;20784;51.332;12.410;2023-05-10T12:06:32;10.15;;;8.73;;
34541;SDS011;20784;51.332;12.410;2023-05-10T12:09:06;11.90;;;8.00;;
34541;SDS011;20784;51.332;12.410;2023-05-10T12:11:39;10.38;;;7.78;;
34541;SDS011;20784;51.332;12.410;2023-05-10T12:14:05;8.98;;;7.70;;
34541;SDS011;20784;51.332;12.410;2023-05-10T12:16:33;11.65;;;8.00;;
34541;SDS011;20784;51.332;12.410;2023-05-10T12:19:00;9.85;;;7.60;;
34541;SDS011;20784;51.332;12.410;2023-05-10T12:21:30;9.60;;;7.57;;
34541;SDS011;20784;51.332;12.410;2023-05-10T12:23:59;9.40;;;8.07;;
34541;SDS011;20784;51.332;12.410;2023-05-10T12:29:18;10.20;;;8.13;;
34541;SDS011;20784;51.332;12.410;2023-05-10T12:34:38;11.25;;;8.73;;
34541;SDS011;20784;51.332;12.410;2023-05-10T12:37:04;9.15;;;7.90;;
34541;SDS011;20784;51.332;12.410;2023-05-10T12:42:05;12.05;;;8.77;;
34541;SDS011;20784;51.332;12.410;2023-05-10T12:44:31;10.40;;;7.47;;
34541;SDS011;20784;51.332;12.410;2023-05-10T12:46:56;10.68;;;7.72;;
34541;SDS011;20784;51.332;12.410;2023-05-10T12:49:22;12.15;;;7.90;;
34541;SDS011;20784;51.332;12.410;2023-05-10T12:51:48;10.23;;;8.52;;
34541;SDS011;20784;51.332;12.410;2023-05-10T12:54:13;12.20;;;8.18;;
34541;SDS011;20784;51.332;12.410;2023-05-10T12:56:39;9.60;;;8.27;;
34541;SDS011;20784;51.332;12.410;2023-05-10T12:59:05;9.23;;;7.88;;
34541;SDS011;20784;51.332;12.410;2023-05-10T13:01:33;9.93;;;7.90;;
34541;SDS011;20784;51.332;12.410;2023-05-10T13:04:01;8.30;;;7.50;;
34541;SDS011;20784;51.332;12.410;2023-05-10T13:06:27;10.63;;;7.28;;
34541;SDS011;20784;51.332;12.410;2023-05-10T13:08:53;8.60;;;7.05;;
34541;SDS011;20784;51.332;12.410;2023-05-10T13:11:18;9.50;;;7.22;;
34541;SDS011;20784;51.332;12.410;2023-05-10T13:13:46;8.23;;;7.13;;
34541;SDS011;20784;51.332;12.410;2023-05-10T13:16:11;10.98;;;7.07;;
34541;SDS011;20784;51.332;12.410;2023-05-10T13:18:37;11.90;;;7.03;;
34541;SDS011;20784;51.332;12.410;2023-05-10T13:21:02;7.30;;;5.40;;
34541;SDS011;20784;51.332;12.410;2023-05-10T13:23:30;6.10;;;5.05;;
34541;SDS011;20784;51.332;12.410;2023-05-10T13:25:58;6.63;;;5.95;;
34541;SDS011;20784;51.332;12.410;2023-05-10T13:28:27;7.60;;;6.32;;
34541;SDS011;20784;51.332;12.410;2023-05-10T13:30:52;8.10;;;5.97;;
34541;SDS011;20784;51.332;12.410;2023-05-10T13:33:18;6.68;;;5.45;;
34541;SDS011;20784;51.332;12.410;2023-05-10T13:35:47;6.65;;;5.65;;
34541;SDS011;20784;51.332;12.410;2023-05-10T13:38:18;6.55;;;5.85;;
34541;SDS011;20784;51.332;12.410;2023-05-10T13:40:46;6.03;;;5.35;;
34541;SDS011;20784;51.332;12.410;2023-05-10T13:43:12;5.28;;;4.78;;
34541;SDS011;20784;51.332;12.410;2023-05-10T13:48:09;6.25;;;4.78;;
34541;SDS011;20784;51.332;12.410;2023-05-10T13:50:35;8.25;;;4.90;;
34541;SDS011;20784;51.332;12.410;2023-05-10T13:53:00;7.70;;;5.38;;
34541;SDS011;20784;51.332;12.410;2023-05-10T13:55:26;6.28;;;4.40;;
34541;SDS011;20784;51.332;12.410;2023-05-10T13:57:52;5.93;;;4.78;;
34541;SDS011;20784;51.332;12.410;2023-05-10T14:00:17;4.43;;;3.80;;
34541;SDS011;20784;51.332;12.410;2023-05-10T14:02:43;4.80;;;3.90;;
34541;SDS011;20784;51.332;12.410;2023-05-10T14:05:11;5.78;;;3.72;;
34541;SDS011;20784;51.332;12.410;2023-05-10T14:07:37;6.75;;;4.60;;
34541;SDS011;20784;51.332;12.410;2023-05-10T14:10:03;3.80;;;3.05;;
34541;SDS011;20784;51.332;12.410;2023-05-10T14:12:29;4.07;;;3.40;;
34541;SDS011;20784;51.332;12.410;2023-05-10T14:14:55;4.43;;;3.22;;
34541;SDS011;20784;51.332;12.410;2023-05-10T14:17:21;3.33;;;3.00;;
34541;SDS011;20784;51.332;12.410;2023-05-10T14:19:47;13.10;;;4.10;;
34541;SDS011;20784;51.332;12.410;2023-05-10T14:22:12;4.38;;;3.35;;
34541;SDS011;20784;51.332;12.410;2023-05-10T14:24:40;6.05;;;3.50;;
34541;SDS011;20784;51.332;12.410;2023-05-10T14:27:09;5.93;;;4.10;;
34541;SDS011;20784;51.332;12.410;2023-05-10T14:29:34;4.30;;;3.90;;
34541;SDS011;20784;51.332;12.410;2023-05-10T14:32:00;5.38;;;4.80;;
34541;SDS011;20784;51.332;12.410;2023-05-10T14:34:27;5.95;;;4.22;;
34541;SDS011;20784;51.332;12.410;2023-05-10T14:36:53;6.07;;;5.05;;
34541;SDS011;20784;51.332;12.410;2023-05-10T14:39:21;7.57;;;4.93;;
34541;SDS011;20784;51.332;12.410;2023-05-10T14:41:50;5.82;;;5.10;;
34541;SDS011;20784;51.332;12.410;2023-05-10T14:44:17;7.50;;;5.22;;
34541;SDS011;20784;51.332;12.410;2023-05-10T14:46:43;5.78;;;4.88;;
34541;SDS011;20784;51.332;12.410;2023-05-10T14:49:11;6.57;;;5.28;;
34541;SDS011;20784;51.332;12.410;2023-05-10T14:52:08;6.80;;;5.18;;
34541;SDS011;20784;51.332;12.410;2023-05-10T14:54:39;6.05;;;5.40;;
34541;SDS011;20784;51.332;12.410;2023-05-10T14:57:10;6.95;;;5.05;;
34541;SDS011;20784;51.332;12.410;2023-05-10T14:59:36;6.70;;;5.55;;
34541;SDS011;20784;51.332;12.410;2023-05-10T15:02:06;6.55;;;5.65;;
34541;SDS011;20784;51.332;12.410;2023-05-10T15:04:42;7.68;;;5.65;;
34541;SDS011;20784;51.332;12.410;2023-05-10T15:07:11;7.88;;;4.97;;
34541;SDS011;20784;51.332;12.410;2023-05-10T15:09:39;6.07;;;3.57;;
34541;SDS011;20784;51.332;12.410;2023-05-10T15:12:08;2.15;;;1.48;;
34541;SDS011;20784;51.332;12.410;2023-05-10T15:17:31;1.33;;;1.15;;
34541;SDS011;20784;51.332;12.410;2023-05-10T15:20:02;1.98;;;1.00;;
34541;SDS011;20784;51.332;12.410;2023-05-10T15:24:57;1.33;;;0.90;;
34541;SDS011;20784;51.332;12.410;2023-05-10T15:27:23;2.20;;;1.10;;
34541;SDS011;20784;51.332;12.410;2023-05-10T15:29:49;2.22;;;0.90;;
34541;SDS011;20784;51.332;12.410;2023-05-10T15:32:15;1.42;;;1.15;;
34541;SDS011;20784;51.332;12.410;2023-05-10T15:34:41;2.92;;;1.20;;
34541;SDS011;20784;51.332;12.410;2023-05-10T15:37:06;1.80;;;1.13;;
34541;SDS011;20784;51.332;12.410;2023-05-10T15:39:38;4.53;;;1.33;;
34541;SDS011;20784;51.332;12.410;2023-05-10T15:42:03;3.40;;;0.90;;